sensor_id;sensor_type;location;lat;lon;timestamp;pressure;altitude;pressure_sealevel;temperature;humidity
14273;BME280;7220;49.450;11.052;2023-04-30T00:03:34;98448.97;;;13.63;68.35
14273;BME280;7220;49.450;11.052;2023-04-30T00:07:34;98459.28;;;13.69;68.33
14273;BME280;7220;49.450;11.052;2023-04-30T00:11:35;98459.28;;;13.69;67.63
14273;BME280;7220;49.450;11.052;2023-04-30T00:15:35;98468.53;;;13.78;67.81
14273;BME280;7220;49.450;11.052;2023-04-30T00:19:35;98456.97;;;13.92;66.73
14273;BME280;7220;49.450;11.052;2023-04-30T00:23:36;98468.88;;;14.01;66.84
14273;BME280;7220;49.450;11.052;2023-04-30T00:27:36;98463.09;;;13.65;67.75
14273;BME280;7220;49.450;11.052;2023-04-30T00:31:36;98463.84;;;13.82;67.65
14273;BME280;7220;49.450;11.052;2023-04-30T00:35:37;98469.19;;;13.82;67.36
14273;BME280;7220;49.450;11.052;2023-04-30T00:39:37;98472.44;;;13.87;67.55
14273;BME280;7220;49.450;11.052;2023-04-30T00:43:38;98480.44;;;13.87;67.02
14273;BME280;7220;49.450;11.052;2023-04-30T00:47:38;98473.41;;;13.86;67.24
14273;BME280;7220;49.450;11.052;2023-04-30T00:51:39;98473.97;;;13.91;66.76
14273;BME280;7220;49.450;11.052;2023-04-30T00:55:42;98488.00;;;13.80;67.02
14273;BME280;7220;49.450;11.052;2023-04-30T00:59:43;98480.44;;;13.72;66.96
14273;BME280;7220;49.450;11.052;2023-04-30T01:03:43;98483.91;;;13.75;67.03
14273;BME280;7220;49.450;11.052;2023-04-30T01:07:44;98494.91;;;13.39;68.79
14273;BME280;7220;49.450;11.052;2023-04-30T01:16:13;98500.66;;;13.48;69.11
14273;BME280;7220;49.450;11.052;2023-04-30T01:20:15;98493.91;;;13.71;68.11
14273;BME280;7220;49.450;11.052;2023-04-30T01:28:56;98494.00;;;13.69;67.92
14273;BME280;7220;49.450;11.052;2023-04-30T01:32:56;98483.22;;;13.71;67.66
14273;BME280;7220;49.450;11.052;2023-04-30T01:37:42;98490.38;;;13.56;68.66
14273;BME280;7220;49.450;11.052;2023-04-30T01:41:59;98492.63;;;13.48;68.99
14273;BME280;7220;49.450;11.052;2023-04-30T01:50:24;98506.75;;;13.50;69.30
14273;BME280;7220;49.450;11.052;2023-04-30T01:54:32;98503.81;;;13.54;69.07
14273;BME280;7220;49.450;11.052;2023-04-30T01:58:39;98503.25;;;13.49;69.59
14273;BME280;7220;49.450;11.052;2023-04-30T02:02:39;98508.88;;;13.45;70.01
14273;BME280;7220;49.450;11.052;2023-04-30T02:06:40;98496.69;;;13.24;69.78
14273;BME280;7220;49.450;11.052;2023-04-30T02:10:40;98509.94;;;13.26;70.68
14273;BME280;7220;49.450;11.052;2023-04-30T02:14:41;98520.78;;;13.23;71.17
14273;BME280;7220;49.450;11.052;2023-04-30T02:18:41;98513.66;;;13.54;69.95
14273;BME280;7220;49.450;11.052;2023-04-30T02:22:42;98525.94;;;13.26;70.96
14273;BME280;7220;49.450;11.052;2023-04-30T02:26:42;98529.94;;;13.19;71.43
14273;BME280;7220;49.450;11.052;2023-04-30T02:30:42;98544.19;;;13.34;71.40
14273;BME280;7220;49.450;11.052;2023-04-30T02:34:43;98526.69;;;13.14;72.55
14273;BME280;7220;49.450;11.052;2023-04-30T02:38:43;98523.19;;;12.97;73.09
14273;BME280;7220;49.450;11.052;2023-04-30T02:42:43;98519.84;;;12.93;73.33
14273;BME280;7220;49.450;11.052;2023-04-30T02:46:44;98529.75;;;13.22;72.75
14273;BME280;7220;49.450;11.052;2023-04-30T02:50:44;98535.66;;;12.97;73.51
14273;BME280;7220;49.450;11.052;2023-04-30T02:54:44;98526.75;;;13.12;72.85
14273;BME280;7220;49.450;11.052;2023-04-30T02:58:45;98528.31;;;13.16;73.00
14273;BME280;7220;49.450;11.052;2023-04-30T03:02:45;98529.78;;;13.06;73.63
14273;BME280;7220;49.450;11.052;2023-04-30T03:06:45;98523.31;;;13.10;73.31
14273;BME280;7220;49.450;11.052;2023-04-30T03:10:46;98525.00;;;13.27;72.83
14273;BME280;7220;49.450;11.052;2023-04-30T03:14:46;98539.25;;;13.12;73.11
14273;BME280;7220;49.450;11.052;2023-04-30T03:18:47;98529.81;;;12.90;74.57
14273;BME280;7220;49.450;11.052;2023-04-30T03:22:48;98534.31;;;12.89;75.18
14273;BME280;7220;49.450;11.052;2023-04-30T03:26:48;98539.72;;;12.72;75.69
14273;BME280;7220;49.450;11.052;2023-04-30T03:30:48;98526.81;;;12.80;76.14
14273;BME280;7220;49.450;11.052;2023-04-30T03:34:49;98519.75;;;12.95;74.46
14273;BME280;7220;49.450;11.052;2023-04-30T03:38:49;98519.97;;;13.06;74.50
14273;BME280;7220;49.450;11.052;2023-04-30T03:42:50;98525.66;;;12.70;75.76
14273;BME280;7220;49.450;11.052;2023-04-30T03:46:50;98527.66;;;12.97;74.32
14273;BME280;7220;49.450;11.052;2023-04-30T03:50:51;98524.72;;;13.01;73.91
14273;BME280;7220;49.450;11.052;2023-04-30T03:54:52;98526.88;;;13.25;73.41
14273;BME280;7220;49.450;11.052;2023-04-30T03:58:52;98528.56;;;13.12;73.77
14273;BME280;7220;49.450;11.052;2023-04-30T04:02:53;98526.75;;;12.82;75.02
14273;BME280;7220;49.450;11.052;2023-04-30T04:06:54;98528.28;;;12.86;74.93
14273;BME280;7220;49.450;11.052;2023-04-30T04:10:54;98531.53;;;12.91;74.81
14273;BME280;7220;49.450;11.052;2023-04-30T04:14:54;98536.03;;;12.74;74.91
14273;BME280;7220;49.450;11.052;2023-04-30T04:18:55;98535.50;;;12.84;74.54
14273;BME280;7220;49.450;11.052;2023-04-30T04:22:55;98543.19;;;12.74;74.75
14273;BME280;7220;49.450;11.052;2023-04-30T04:26:56;98541.09;;;12.95;74.75
14273;BME280;7220;49.450;11.052;2023-04-30T04:30:57;98541.53;;;12.87;74.76
14273;BME280;7220;49.450;11.052;2023-04-30T04:34:57;98536.53;;;12.81;74.60
14273;BME280;7220;49.450;11.052;2023-04-30T04:38:58;98547.22;;;12.97;74.47
14273;BME280;7220;49.450;11.052;2023-04-30T04:43:02;98547.88;;;13.01;74.07
14273;BME280;7220;49.450;11.052;2023-04-30T04:47:02;98557.00;;;12.97;74.11
14273;BME280;7220;49.450;11.052;2023-04-30T04:51:03;98547.72;;;12.88;74.62
14273;BME280;7220;49.450;11.052;2023-04-30T04:55:04;98544.44;;;12.83;74.85
14273;BME280;7220;49.450;11.052;2023-04-30T04:59:05;98553.06;;;12.88;74.71
14273;BME280;7220;49.450;11.052;2023-04-30T05:03:05;98552.88;;;12.91;74.94
14273;BME280;7220;49.450;11.052;2023-04-30T05:07:05;98550.41;;;13.18;73.57
14273;BME280;7220;49.450;11.052;2023-04-30T05:11:07;98556.56;;;13.35;73.55
14273;BME280;7220;49.450;11.052;2023-04-30T05:15:07;98556.66;;;13.33;73.22
14273;BME280;7220;49.450;11.052;2023-04-30T05:19:07;98555.47;;;13.23;73.91
14273;BME280;7220;49.450;11.052;2023-04-30T05:23:08;98558.97;;;13.39;72.98
14273;BME280;7220;49.450;11.052;2023-04-30T05:27:09;98568.44;;;13.45;72.93
14273;BME280;7220;49.450;11.052;2023-04-30T05:31:09;98562.31;;;13.13;74.74
14273;BME280;7220;49.450;11.052;2023-04-30T05:35:09;98560.72;;;13.40;73.38
14273;BME280;7220;49.450;11.052;2023-04-30T05:39:11;98557.91;;;13.58;72.93
14273;BME280;7220;49.450;11.052;2023-04-30T05:43:11;98564.75;;;13.62;72.40
14273;BME280;7220;49.450;11.052;2023-04-30T05:47:12;98573.94;;;13.42;73.11
14273;BME280;7220;49.450;11.052;2023-04-30T05:51:12;98573.34;;;13.53;72.57
14273;BME280;7220;49.450;11.052;2023-04-30T05:55:13;98563.59;;;13.52;72.61
14273;BME280;7220;49.450;11.052;2023-04-30T05:59:13;98561.91;;;13.65;72.25
14273;BME280;7220;49.450;11.052;2023-04-30T06:03:13;98562.97;;;13.63;71.39
14273;BME280;7220;49.450;11.052;2023-04-30T06:07:14;98573.78;;;13.45;72.54
14273;BME280;7220;49.450;11.052;2023-04-30T06:11:14;98564.31;;;13.70;70.80
14273;BME280;7220;49.450;11.052;2023-04-30T06:15:14;98578.31;;;13.13;73.51
14273;BME280;7220;49.450;11.052;2023-04-30T06:19:15;98568.59;;;13.87;70.21
14273;BME280;7220;49.450;11.052;2023-04-30T06:23:15;98567.53;;;13.61;71.16
14273;BME280;7220;49.450;11.052;2023-04-30T06:27:15;98568.41;;;13.61;70.61
14273;BME280;7220;49.450;11.052;2023-04-30T06:31:15;98567.09;;;13.83;69.93
14273;BME280;7220;49.450;11.052;2023-04-30T06:35:16;98562.69;;;13.82;69.10
14273;BME280;7220;49.450;11.052;2023-04-30T06:39:16;98566.47;;;13.63;69.92
14273;BME280;7220;49.450;11.052;2023-04-30T06:43:16;98563.84;;;13.78;69.50
14273;BME280;7220;49.450;11.052;2023-04-30T06:47:17;98563.75;;;13.94;68.65
14273;BME280;7220;49.450;11.052;2023-04-30T06:51:17;98560.59;;;14.16;67.35
14273;BME280;7220;49.450;11.052;2023-04-30T06:55:18;98560.63;;;14.01;67.77
14273;BME280;7220;49.450;11.052;2023-04-30T06:59:18;98565.09;;;14.30;66.20
14273;BME280;7220;49.450;11.052;2023-04-30T07:03:18;98570.03;;;14.07;67.72
14273;BME280;7220;49.450;11.052;2023-04-30T07:07:19;98566.78;;;13.73;68.48
14273;BME280;7220;49.450;11.052;2023-04-30T07:11:19;98561.84;;;13.96;67.74
14273;BME280;7220;49.450;11.052;2023-04-30T07:15:19;98573.00;;;13.88;67.99
14273;BME280;7220;49.450;11.052;2023-04-30T07:19:20;98571.97;;;14.05;66.79
14273;BME280;7220;49.450;11.052;2023-04-30T07:23:20;98573.00;;;14.02;66.05
14273;BME280;7220;49.450;11.052;2023-04-30T07:27:20;98580.44;;;14.12;65.49
14273;BME280;7220;49.450;11.052;2023-04-30T07:31:21;98574.44;;;14.23;65.02
14273;BME280;7220;49.450;11.052;2023-04-30T07:35:21;98561.94;;;14.09;64.72
14273;BME280;7220;49.450;11.052;2023-04-30T07:39:21;98566.50;;;14.35;63.96
14273;BME280;7220;49.450;11.052;2023-04-30T07:43:22;98556.53;;;14.52;63.20
14273;BME280;7220;49.450;11.052;2023-04-30T07:47:23;98568.00;;;14.96;61.06
14273;BME280;7220;49.450;11.052;2023-04-30T07:51:24;98569.13;;;14.64;62.15
14273;BME280;7220;49.450;11.052;2023-04-30T07:55:25;98557.22;;;14.97;60.53
14273;BME280;7220;49.450;11.052;2023-04-30T07:59:26;98569.44;;;15.02;60.55
14273;BME280;7220;49.450;11.052;2023-04-30T08:03:26;98564.25;;;15.13;59.74
14273;BME280;7220;49.450;11.052;2023-04-30T08:07:26;98567.41;;;15.05;59.76
14273;BME280;7220;49.450;11.052;2023-04-30T08:11:27;98556.81;;;15.04;59.51
14273;BME280;7220;49.450;11.052;2023-04-30T08:15:27;98554.97;;;15.44;57.97
14273;BME280;7220;49.450;11.052;2023-04-30T08:19:28;98569.00;;;15.48;57.81
14273;BME280;7220;49.450;11.052;2023-04-30T08:23:28;98547.41;;;16.03;55.56
14273;BME280;7220;49.450;11.052;2023-04-30T08:27:30;98542.91;;;16.16;54.89
14273;BME280;7220;49.450;11.052;2023-04-30T08:31:31;98555.25;;;15.93;54.43
14273;BME280;7220;49.450;11.052;2023-04-30T08:35:31;98546.84;;;15.72;56.01
14273;BME280;7220;49.450;11.052;2023-04-30T08:39:32;98545.16;;;16.22;53.15
14273;BME280;7220;49.450;11.052;2023-04-30T08:43:33;98544.84;;;16.27;52.19
14273;BME280;7220;49.450;11.052;2023-04-30T08:47:34;98532.94;;;16.68;49.58
14273;BME280;7220;49.450;11.052;2023-04-30T08:51:35;98552.00;;;16.77;47.79
14273;BME280;7220;49.450;11.052;2023-04-30T08:55:38;98538.63;;;16.64;48.32
14273;BME280;7220;49.450;11.052;2023-04-30T08:59:39;98536.81;;;16.88;46.01
14273;BME280;7220;49.450;11.052;2023-04-30T09:03:39;98541.56;;;17.09;44.50
14273;BME280;7220;49.450;11.052;2023-04-30T09:07:41;98541.56;;;17.09;43.28
14273;BME280;7220;49.450;11.052;2023-04-30T09:11:42;98541.72;;;17.19;43.19
14273;BME280;7220;49.450;11.052;2023-04-30T09:15:42;98538.00;;;17.33;43.07
14273;BME280;7220;49.450;11.052;2023-04-30T09:19:44;98557.78;;;17.32;43.08
14273;BME280;7220;49.450;11.052;2023-04-30T09:28:11;98541.44;;;17.82;42.31
14273;BME280;7220;49.450;11.052;2023-04-30T09:32:12;98541.03;;;17.87;42.76
14273;BME280;7220;49.450;11.052;2023-04-30T09:36:13;98533.56;;;17.67;42.92
14273;BME280;7220;49.450;11.052;2023-04-30T09:40:13;98524.34;;;18.17;41.19
14273;BME280;7220;49.450;11.052;2023-04-30T09:44:30;98543.78;;;18.43;41.01
14273;BME280;7220;49.450;11.052;2023-04-30T09:48:30;98549.66;;;18.15;40.88
14273;BME280;7220;49.450;11.052;2023-04-30T09:52:31;98545.94;;;17.81;42.22
14273;BME280;7220;49.450;11.052;2023-04-30T09:56:34;98544.50;;;18.11;40.74
14273;BME280;7220;49.450;11.052;2023-04-30T10:00:37;98534.25;;;18.28;40.83
14273;BME280;7220;49.450;11.052;2023-04-30T10:04:42;98530.53;;;18.74;39.87
14273;BME280;7220;49.450;11.052;2023-04-30T10:08:46;98527.16;;;18.50;39.56
14273;BME280;7220;49.450;11.052;2023-04-30T10:12:53;98526.34;;;19.26;38.27
14273;BME280;7220;49.450;11.052;2023-04-30T10:17:12;98510.81;;;19.18;38.38
14273;BME280;7220;49.450;11.052;2023-04-30T10:21:15;98508.25;;;19.16;37.56
14273;BME280;7220;49.450;11.052;2023-04-30T10:25:17;98492.34;;;19.34;37.37
14273;BME280;7220;49.450;11.052;2023-04-30T10:29:17;98502.25;;;19.55;37.16
14273;BME280;7220;49.450;11.052;2023-04-30T10:33:49;98505.19;;;19.42;37.28
14273;BME280;7220;49.450;11.052;2023-04-30T10:38:12;98489.47;;;19.47;38.26
14273;BME280;7220;49.450;11.052;2023-04-30T10:42:14;98485.00;;;19.58;38.09
14273;BME280;7220;49.450;11.052;2023-04-30T10:46:21;98479.50;;;19.90;37.57
14273;BME280;7220;49.450;11.052;2023-04-30T10:50:22;98487.63;;;20.00;37.52
14273;BME280;7220;49.450;11.052;2023-04-30T10:54:34;98484.97;;;19.79;37.90
14273;BME280;7220;49.450;11.052;2023-04-30T10:58:37;98475.31;;;20.07;36.38
14273;BME280;7220;49.450;11.052;2023-04-30T11:02:39;98478.34;;;20.24;35.65
14273;BME280;7220;49.450;11.052;2023-04-30T11:07:08;98477.69;;;20.41;36.28
14273;BME280;7220;49.450;11.052;2023-04-30T11:11:10;98469.50;;;20.72;35.33
14273;BME280;7220;49.450;11.052;2023-04-30T11:15:15;98456.16;;;21.39;33.50
14273;BME280;7220;49.450;11.052;2023-04-30T11:19:17;98451.13;;;22.30;32.74
14273;BME280;7220;49.450;11.052;2023-04-30T11:23:22;98453.84;;;22.30;32.61
14273;BME280;7220;49.450;11.052;2023-04-30T11:27:24;98444.94;;;23.90;30.46
14273;BME280;7220;49.450;11.052;2023-04-30T11:31:32;98429.97;;;26.27;27.21
14273;BME280;7220;49.450;11.052;2023-04-30T11:35:33;98435.72;;;27.87;25.61
14273;BME280;7220;49.450;11.052;2023-04-30T11:39:35;98431.31;;;26.86;26.23
14273;BME280;7220;49.450;11.052;2023-04-30T11:43:36;98421.66;;;25.48;28.03
14273;BME280;7220;49.450;11.052;2023-04-30T11:47:47;98427.41;;;27.80;25.39
14273;BME280;7220;49.450;11.052;2023-04-30T11:51:50;98417.81;;;27.69;25.39
14273;BME280;7220;49.450;11.052;2023-04-30T11:55:52;98416.34;;;27.82;25.38
14273;BME280;7220;49.450;11.052;2023-04-30T11:59:54;98400.41;;;28.15;25.54
14273;BME280;7220;49.450;11.052;2023-04-30T12:03:55;98402.19;;;28.23;24.52
14273;BME280;7220;49.450;11.052;2023-04-30T12:07:59;98406.91;;;27.54;25.11
14273;BME280;7220;49.450;11.052;2023-04-30T12:11:59;98402.97;;;26.96;25.76
14273;BME280;7220;49.450;11.052;2023-04-30T12:16:01;98404.13;;;27.39;25.73
14273;BME280;7220;49.450;11.052;2023-04-30T12:20:02;98393.66;;;28.11;25.15
14273;BME280;7220;49.450;11.052;2023-04-30T12:24:04;98403.59;;;28.34;24.53
14273;BME280;7220;49.450;11.052;2023-04-30T12:28:04;98401.78;;;28.26;24.72
14273;BME280;7220;49.450;11.052;2023-04-30T12:32:04;98407.59;;;28.53;24.50
14273;BME280;7220;49.450;11.052;2023-04-30T12:36:09;98407.06;;;27.53;24.58
14273;BME280;7220;49.450;11.052;2023-04-30T12:40:13;98407.38;;;28.03;24.02
14273;BME280;7220;49.450;11.052;2023-04-30T12:44:21;98393.00;;;28.46;24.18
14273;BME280;7220;49.450;11.052;2023-04-30T12:48:23;98395.41;;;28.19;24.34
14273;BME280;7220;49.450;11.052;2023-04-30T12:52:24;98391.97;;;28.69;23.33
14273;BME280;7220;49.450;11.052;2023-04-30T12:56:25;98394.84;;;27.79;23.42
14273;BME280;7220;49.450;11.052;2023-04-30T13:00:26;98381.81;;;27.36;24.48
14273;BME280;7220;49.450;11.052;2023-04-30T13:04:26;98371.72;;;27.75;24.89
14273;BME280;7220;49.450;11.052;2023-04-30T13:08:28;98370.31;;;28.67;24.08
14273;BME280;7220;49.450;11.052;2023-04-30T13:12:29;98360.25;;;29.18;23.33
14273;BME280;7220;49.450;11.052;2023-04-30T13:16:29;98360.47;;;29.45;23.41
14273;BME280;7220;49.450;11.052;2023-04-30T13:20:30;98347.50;;;29.95;22.06
14273;BME280;7220;49.450;11.052;2023-04-30T13:24:31;98362.22;;;30.43;21.92
14273;BME280;7220;49.450;11.052;2023-04-30T13:28:31;98353.22;;;30.69;21.39
14273;BME280;7220;49.450;11.052;2023-04-30T13:32:31;98348.41;;;31.05;21.08
14273;BME280;7220;49.450;11.052;2023-04-30T13:36:32;98340.91;;;30.45;20.98
14273;BME280;7220;49.450;11.052;2023-04-30T13:40:32;98344.25;;;29.21;21.72
14273;BME280;7220;49.450;11.052;2023-04-30T13:44:33;98341.88;;;28.83;22.24
14273;BME280;7220;49.450;11.052;2023-04-30T13:48:35;98342.75;;;28.47;22.75
14273;BME280;7220;49.450;11.052;2023-04-30T13:52:35;98337.47;;;28.24;23.26
14273;BME280;7220;49.450;11.052;2023-04-30T13:56:35;98333.16;;;28.14;23.43
14273;BME280;7220;49.450;11.052;2023-04-30T14:00:36;98331.94;;;28.02;22.98
14273;BME280;7220;49.450;11.052;2023-04-30T14:04:36;98327.13;;;28.04;22.74
14273;BME280;7220;49.450;11.052;2023-04-30T14:08:37;98322.81;;;27.95;23.41
14273;BME280;7220;49.450;11.052;2023-04-30T14:12:37;98317.16;;;27.81;23.62
14273;BME280;7220;49.450;11.052;2023-04-30T14:16:38;98306.59;;;28.08;22.88
14273;BME280;7220;49.450;11.052;2023-04-30T14:20:38;98316.22;;;28.04;23.12
14273;BME280;7220;49.450;11.052;2023-04-30T14:24:39;98312.63;;;27.89;23.39
14273;BME280;7220;49.450;11.052;2023-04-30T14:28:39;98298.97;;;27.89;22.20
14273;BME280;7220;49.450;11.052;2023-04-30T14:32:40;98300.72;;;27.60;22.69
14273;BME280;7220;49.450;11.052;2023-04-30T14:36:40;98289.41;;;27.78;22.42
14273;BME280;7220;49.450;11.052;2023-04-30T14:40:42;98285.53;;;27.87;22.30
14273;BME280;7220;49.450;11.052;2023-04-30T14:44:42;98283.81;;;28.01;22.76
14273;BME280;7220;49.450;11.052;2023-04-30T14:48:43;98281.34;;;28.06;22.86
14273;BME280;7220;49.450;11.052;2023-04-30T14:52:44;98279.16;;;28.01;22.36
14273;BME280;7220;49.450;11.052;2023-04-30T14:56:46;98272.56;;;27.74;23.09
14273;BME280;7220;49.450;11.052;2023-04-30T15:00:47;98278.53;;;27.48;23.81
14273;BME280;7220;49.450;11.052;2023-04-30T15:04:47;98265.97;;;26.93;23.65
14273;BME280;7220;49.450;11.052;2023-04-30T15:08:47;98269.78;;;26.84;23.27
14273;BME280;7220;49.450;11.052;2023-04-30T15:12:48;98265.78;;;26.34;23.76
14273;BME280;7220;49.450;11.052;2023-04-30T15:19:05;98272.94;;;26.03;26.89
14273;BME280;7220;49.450;11.052;2023-04-30T15:23:06;98271.28;;;25.71;26.24
14273;BME280;7220;49.450;11.052;2023-04-30T15:27:07;98258.13;;;25.34;26.22
14273;BME280;7220;49.450;11.052;2023-04-30T15:31:07;98253.06;;;25.23;27.12
14273;BME280;7220;49.450;11.052;2023-04-30T15:35:08;98250.97;;;25.42;26.29
14273;BME280;7220;49.450;11.052;2023-04-30T15:39:08;98257.66;;;25.23;25.98
14273;BME280;7220;49.450;11.052;2023-04-30T15:43:08;98254.44;;;25.11;26.38
14273;BME280;7220;49.450;11.052;2023-04-30T15:47:10;98253.00;;;24.75;26.33
14273;BME280;7220;49.450;11.052;2023-04-30T15:51:10;98250.13;;;24.35;26.30
14273;BME280;7220;49.450;11.052;2023-04-30T15:55:10;98250.94;;;24.19;26.79
14273;BME280;7220;49.450;11.052;2023-04-30T15:59:11;98253.09;;;23.91;26.80
14273;BME280;7220;49.450;11.052;2023-04-30T16:03:15;98246.94;;;23.81;27.49
14273;BME280;7220;49.450;11.052;2023-04-30T16:07:15;98251.78;;;23.95;27.11
14273;BME280;7220;49.450;11.052;2023-04-30T16:11:15;98238.97;;;23.79;27.60
14273;BME280;7220;49.450;11.052;2023-04-30T16:15:16;98231.00;;;23.77;27.50
14273;BME280;7220;49.450;11.052;2023-04-30T16:19:16;98232.31;;;23.65;27.49
14273;BME280;7220;49.450;11.052;2023-04-30T16:23:17;98233.06;;;23.84;27.98
14273;BME280;7220;49.450;11.052;2023-04-30T16:27:17;98229.41;;;24.18;27.42
14273;BME280;7220;49.450;11.052;2023-04-30T16:31:17;98229.72;;;24.48;26.95
14273;BME280;7220;49.450;11.052;2023-04-30T16:35:21;98241.63;;;24.30;26.85
14273;BME280;7220;49.450;11.052;2023-04-30T16:39:21;98234.97;;;24.00;27.38
14273;BME280;7220;49.450;11.052;2023-04-30T16:43:22;98240.44;;;23.57;27.37
14273;BME280;7220;49.450;11.052;2023-04-30T16:47:22;98238.78;;;22.95;28.40
14273;BME280;7220;49.450;11.052;2023-04-30T16:51:23;98234.84;;;22.63;28.88
14273;BME280;7220;49.450;11.052;2023-04-30T16:55:23;98231.09;;;22.82;28.91
14273;BME280;7220;49.450;11.052;2023-04-30T16:59:24;98233.06;;;22.98;28.72
14273;BME280;7220;49.450;11.052;2023-04-30T17:03:26;98218.59;;;22.89;28.78
14273;BME280;7220;49.450;11.052;2023-04-30T17:07:26;98227.53;;;22.81;28.96
14273;BME280;7220;49.450;11.052;2023-04-30T17:11:26;98227.38;;;22.57;28.79
14273;BME280;7220;49.450;11.052;2023-04-30T17:15:27;98233.50;;;22.41;28.94
14273;BME280;7220;49.450;11.052;2023-04-30T17:19:27;98231.34;;;22.08;29.31
14273;BME280;7220;49.450;11.052;2023-04-30T17:23:27;98227.47;;;21.93;29.32
14273;BME280;7220;49.450;11.052;2023-04-30T17:27:28;98226.94;;;21.71;30.07
14273;BME280;7220;49.450;11.052;2023-04-30T17:31:31;98224.44;;;21.59;30.06
14273;BME280;7220;49.450;11.052;2023-04-30T17:35:32;98233.56;;;21.21;30.86
14273;BME280;7220;49.450;11.052;2023-04-30T17:39:33;98234.00;;;21.16;31.22
14273;BME280;7220;49.450;11.052;2023-04-30T17:43:33;98229.09;;;21.02;30.84
14273;BME280;7220;49.450;11.052;2023-04-30T17:47:33;98236.38;;;20.91;30.97
14273;BME280;7220;49.450;11.052;2023-04-30T17:51:34;98225.94;;;20.59;31.41
14273;BME280;7220;49.450;11.052;2023-04-30T17:55:34;98235.06;;;20.28;31.73
14273;BME280;7220;49.450;11.052;2023-04-30T17:59:37;98229.97;;;20.25;31.65
14273;BME280;7220;49.450;11.052;2023-04-30T18:03:37;98227.41;;;20.14;32.00
14273;BME280;7220;49.450;11.052;2023-04-30T18:07:38;98222.25;;;19.71;32.73
14273;BME280;7220;49.450;11.052;2023-04-30T18:11:38;98231.63;;;19.67;32.67
14273;BME280;7220;49.450;11.052;2023-04-30T18:15:39;98225.34;;;19.57;32.86
14273;BME280;7220;49.450;11.052;2023-04-30T18:19:39;98231.56;;;19.38;33.85
14273;BME280;7220;49.450;11.052;2023-04-30T18:23:43;98218.78;;;19.30;33.86
14273;BME280;7220;49.450;11.052;2023-04-30T18:27:43;98225.88;;;19.00;34.65
14273;BME280;7220;49.450;11.052;2023-04-30T18:31:44;98232.41;;;18.76;34.65
14273;BME280;7220;49.450;11.052;2023-04-30T18:35:44;98229.47;;;18.37;35.33
14273;BME280;7220;49.450;11.052;2023-04-30T18:39:49;98236.91;;;18.66;34.97
14273;BME280;7220;49.450;11.052;2023-04-30T18:43:50;98231.94;;;18.40;35.51
14273;BME280;7220;49.450;11.052;2023-04-30T18:47:50;98237.03;;;18.43;35.53
14273;BME280;7220;49.450;11.052;2023-04-30T18:51:51;98233.81;;;18.07;36.44
14273;BME280;7220;49.450;11.052;2023-04-30T18:55:55;98233.84;;;17.96;36.73
14273;BME280;7220;49.450;11.052;2023-04-30T18:59:56;98235.69;;;17.95;36.59
14273;BME280;7220;49.450;11.052;2023-04-30T19:03:57;98247.38;;;17.94;36.65
14273;BME280;7220;49.450;11.052;2023-04-30T19:07:57;98241.91;;;17.96;36.65
14273;BME280;7220;49.450;11.052;2023-04-30T19:11:58;98235.59;;;17.74;37.18
14273;BME280;7220;49.450;11.052;2023-04-30T19:16:01;98239.09;;;17.54;37.69
14273;BME280;7220;49.450;11.052;2023-04-30T19:20:01;98246.88;;;17.68;37.21
14273;BME280;7220;49.450;11.052;2023-04-30T19:24:02;98248.41;;;17.27;37.92
14273;BME280;7220;49.450;11.052;2023-04-30T19:28:03;98253.66;;;17.28;38.21
14273;BME280;7220;49.450;11.052;2023-04-30T19:32:03;98254.28;;;17.21;38.77
14273;BME280;7220;49.450;11.052;2023-04-30T19:36:04;98264.50;;;17.15;39.03
14273;BME280;7220;49.450;11.052;2023-04-30T19:40:08;98263.78;;;17.02;38.76
14273;BME280;7220;49.450;11.052;2023-04-30T19:44:11;98261.34;;;17.10;39.41
14273;BME280;7220;49.450;11.052;2023-04-30T19:48:11;98260.38;;;17.11;39.51
14273;BME280;7220;49.450;11.052;2023-04-30T19:52:13;98258.91;;;17.07;39.36
14273;BME280;7220;49.450;11.052;2023-04-30T19:56:14;98266.44;;;16.79;40.10
14273;BME280;7220;49.450;11.052;2023-04-30T20:00:14;98266.75;;;16.63;40.33
14273;BME280;7220;49.450;11.052;2023-04-30T20:04:15;98261.38;;;16.52;40.89
14273;BME280;7220;49.450;11.052;2023-04-30T20:08:16;98265.44;;;16.58;40.18
14273;BME280;7220;49.450;11.052;2023-04-30T20:12:16;98267.88;;;16.72;40.90
14273;BME280;7220;49.450;11.052;2023-04-30T20:16:16;98253.72;;;16.70;40.41
14273;BME280;7220;49.450;11.052;2023-04-30T20:20:19;98254.94;;;16.54;41.26
14273;BME280;7220;49.450;11.052;2023-04-30T20:24:20;98247.59;;;16.45;40.86
14273;BME280;7220;49.450;11.052;2023-04-30T20:28:21;98259.53;;;16.52;40.67
14273;BME280;7220;49.450;11.052;2023-04-30T20:32:22;98268.34;;;16.54;40.93
14273;BME280;7220;49.450;11.052;2023-04-30T20:36:22;98267.31;;;16.33;41.06
14273;BME280;7220;49.450;11.052;2023-04-30T20:40:23;98267.97;;;16.12;41.85
14273;BME280;7220;49.450;11.052;2023-04-30T20:44:23;98274.63;;;16.31;40.88
14273;BME280;7220;49.450;11.052;2023-04-30T20:48:25;98264.00;;;15.93;42.38
14273;BME280;7220;49.450;11.052;2023-04-30T20:52:26;98268.91;;;16.00;42.60
14273;BME280;7220;49.450;11.052;2023-04-30T20:56:26;98265.59;;;15.96;41.90
14273;BME280;7220;49.450;11.052;2023-04-30T21:00:26;98273.94;;;16.16;41.41
14273;BME280;7220;49.450;11.052;2023-04-30T21:04:27;98267.25;;;15.86;41.74
14273;BME280;7220;49.450;11.052;2023-04-30T21:08:27;98267.34;;;15.84;41.88
14273;BME280;7220;49.450;11.052;2023-04-30T21:12:28;98271.34;;;15.66;42.61
14273;BME280;7220;49.450;11.052;2023-04-30T21:16:29;98272.94;;;15.68;42.54
14273;BME280;7220;49.450;11.052;2023-04-30T21:20:29;98272.00;;;15.69;43.17
14273;BME280;7220;49.450;11.052;2023-04-30T21:24:30;98274.13;;;15.77;42.76
14273;BME280;7220;49.450;11.052;2023-04-30T21:28:30;98284.25;;;15.60;43.53
14273;BME280;7220;49.450;11.052;2023-04-30T21:32:32;98266.00;;;15.28;44.29
14273;BME280;7220;49.450;11.052;2023-04-30T21:36:33;98272.56;;;15.11;44.79
14273;BME280;7220;49.450;11.052;2023-04-30T21:40:34;98264.06;;;15.30;44.60